Time;durP1;ratioP1;P1;durP2;ratioP2;P2;SDS_P1;SDS_P2;PMS_P1;PMS_P2;Temp;Humidity;BMP_temperature;BMP_pressure;BME280_temperature;BME280_humidity;BME280_pressure;Samples;Min_cycle;Max_cycle;Signal;HPM_P1;HPM_P2
2024/02/29 00:01:25;;;;;;;4.30;1.40;;;;;;;;;;4989421;28;87617;-57
2024/02/29 00:03:50;;;;;;;2.60;1.10;;;;;;;;;;4984244;28;86817;-58
2024/02/29 00:06:16;;;;;;;3.83;1.40;;;;;;;;;;4985028;28;87759;-58
2024/02/29 00:08:41;;;;;;;2.10;1.00;;;;;;;;;;4987208;28;87252;-58
2024/02/29 00:11:06;;;;;;;3.03;1.13;;;;;;;;;;4983287;28;87298;-59
2024/02/29 00:13:31;;;;;;;4.03;1.83;;;;;;;;;;4985540;28;86844;-59
2024/02/29 00:15:57;;;;;;;4.57;1.90;;;;;;;;;;4983087;28;87297;-56
2024/02/29 00:18:22;;;;;;;4.05;1.23;;;;;;;;;;4981662;28;87505;-59
2024/02/29 00:20:48;;;;;;;2.13;1.20;;;;;;;;;;4980091;28;88628;-58
2024/02/29 00:23:13;;;;;;;2.33;1.20;;;;;;;;;;4987460;28;87788;-58
2024/02/29 00:25:38;;;;;;;4.37;1.70;;;;;;;;;;4984542;28;87318;-59
2024/02/29 00:28:03;;;;;;;2.67;1.30;;;;;;;;;;4980280;28;87097;-59
2024/02/29 00:30:29;;;;;;;5.67;1.53;;;;;;;;;;4982984;28;87345;-59
2024/02/29 00:32:55;;;;;;;2.80;1.10;;;;;;;;;;4978550;28;87550;-58
2024/02/29 00:35:20;;;;;;;2.75;1.45;;;;;;;;;;4984146;28;87607;-59
2024/02/29 00:37:45;;;;;;;5.93;1.50;;;;;;;;;;4981448;28;87284;-58
2024/02/29 00:40:11;;;;;;;2.00;1.30;;;;;;;;;;4980439;28;86915;-58
2024/02/29 00:42:36;;;;;;;3.20;1.50;;;;;;;;;;4982495;28;87323;-59
2024/02/29 00:45:01;;;;;;;3.30;1.63;;;;;;;;;;4982118;28;87777;-59
2024/02/29 00:47:26;;;;;;;3.50;1.53;;;;;;;;;;4983510;28;86972;-59
2024/02/29 00:49:52;;;;;;;3.17;1.30;;;;;;;;;;4981096;28;87694;-57
2024/02/29 00:52:17;;;;;;;3.07;1.10;;;;;;;;;;4985981;28;88122;-58
2024/02/29 00:54:42;;;;;;;3.10;1.40;;;;;;;;;;4981897;28;86849;-57
2024/02/29 00:57:07;;;;;;;4.30;1.07;;;;;;;;;;4988482;28;87162;-58
2024/02/29 00:59:32;;;;;;;3.20;1.50;;;;;;;;;;4982277;28;86897;-59
2024/02/29 01:01:58;;;;;;;2.33;1.10;;;;;;;;;;4987190;28;87343;-58
2024/02/29 01:04:23;;;;;;;1.93;1.33;;;;;;;;;;4986237;28;87375;-58
2024/02/29 01:06:48;;;;;;;2.33;1.07;;;;;;;;;;4988762;28;86964;-59
2024/02/29 01:09:13;;;;;;;1.73;1.07;;;;;;;;;;4981508;28;88541;-58
2024/02/29 01:11:39;;;;;;;2.70;1.23;;;;;;;;;;4986899;28;86880;-59
2024/02/29 01:14:04;;;;;;;2.90;1.20;;;;;;;;;;4984141;28;87413;-58
2024/02/29 01:16:29;;;;;;;3.87;1.17;;;;;;;;;;4981828;28;87484;-57
2024/02/29 01:18:54;;;;;;;3.37;1.60;;;;;;;;;;4982296;28;87105;-59
2024/02/29 01:21:20;;;;;;;2.97;1.33;;;;;;;;;;4983319;28;87494;-58
2024/02/29 01:23:45;;;;;;;2.47;1.10;;;;;;;;;;4979903;28;86982;-57
2024/02/29 01:26:11;;;;;;;1.85;1.33;;;;;;;;;;4985173;28;86570;-58
2024/02/29 01:28:36;;;;;;;3.30;1.25;;;;;;;;;;4985197;28;87300;-59
2024/02/29 01:31:03;;;;;;;4.75;1.50;;;;;;;;;;4979711;28;86882;-58
2024/02/29 01:33:29;;;;;;;2.03;1.25;;;;;;;;;;4981065;28;87940;-58
2024/02/29 01:35:54;;;;;;;1.93;1.10;;;;;;;;;;4982364;28;88442;-58
2024/02/29 01:38:19;;;;;;;3.30;1.30;;;;;;;;;;4975895;28;89526;-58
2024/02/29 01:40:45;;;;;;;3.03;1.43;;;;;;;;;;4982135;28;87455;-58
2024/02/29 01:43:11;;;;;;;2.25;1.48;;;;;;;;;;4977435;28;88134;-58
2024/02/29 01:45:36;;;;;;;2.08;1.10;;;;;;;;;;4981883;28;87559;-58
2024/02/29 01:48:01;;;;;;;3.50;1.33;;;;;;;;;;4984813;28;87115;-58
2024/02/29 01:50:28;;;;;;;3.00;1.20;;;;;;;;;;4981040;28;86120;-59
2024/02/29 01:52:53;;;;;;;4.13;1.10;;;;;;;;;;4988663;28;87113;-58
2024/02/29 01:55:18;;;;;;;3.73;1.57;;;;;;;;;;4982432;28;88148;-58
2024/02/29 01:57:44;;;;;;;2.23;1.00;;;;;;;;;;4979844;28;88460;-58
2024/02/29 02:00:10;;;;;;;1.80;1.00;;;;;;;;;;4978344;28;87534;-58
2024/02/29 02:02:37;;;;;;;1.67;0.83;;;;;;;;;;4984596;28;87416;-58
2024/02/29 02:05:03;;;;;;;2.00;1.13;;;;;;;;;;4980002;28;86908;-59
2024/02/29 02:07:28;;;;;;;4.00;1.20;;;;;;;;;;4987515;28;89425;-58
2024/02/29 02:09:55;;;;;;;3.60;1.50;;;;;;;;;;4985966;28;87481;-59
2024/02/29 02:12:20;;;;;;;2.15;1.23;;;;;;;;;;4985909;28;87370;-58
2024/02/29 02:14:45;;;;;;;1.97;0.90;;;;;;;;;;4983763;28;87516;-58
2024/02/29 02:17:11;;;;;;;3.07;1.17;;;;;;;;;;4977691;28;86929;-59
2024/02/29 02:19:37;;;;;;;3.60;1.20;;;;;;;;;;4982995;28;87141;-58
2024/02/29 02:22:04;;;;;;;1.53;0.90;;;;;;;;;;4981137;28;88094;-59
2024/02/29 02:24:31;;;;;;;1.70;1.10;;;;;;;;;;4985338;28;87842;-58
2024/02/29 02:26:56;;;;;;;2.50;1.17;;;;;;;;;;4980584;28;86994;-58
2024/02/29 02:29:21;;;;;;;2.97;1.10;;;;;;;;;;4981353;28;89686;-58
2024/02/29 02:31:46;;;;;;;2.23;1.20;;;;;;;;;;4979111;28;87175;-59
2024/02/29 02:34:12;;;;;;;2.57;1.03;;;;;;;;;;4978156;28;87566;-59
2024/02/29 02:36:37;;;;;;;3.97;1.00;;;;;;;;;;4981614;28;88668;-58
2024/02/29 02:39:02;;;;;;;1.85;1.00;;;;;;;;;;4982848;28;86624;-59
2024/02/29 02:41:27;;;;;;;2.47;1.10;;;;;;;;;;4979322;28;87015;-58
2024/02/29 02:43:53;;;;;;;3.17;1.33;;;;;;;;;;4983372;28;88421;-58
2024/02/29 02:46:19;;;;;;;2.87;1.17;;;;;;;;;;4978941;28;89322;-59
2024/02/29 02:48:44;;;;;;;2.37;1.10;;;;;;;;;;4986290;28;88252;-58
2024/02/29 02:51:09;;;;;;;1.47;0.90;;;;;;;;;;4980566;28;87697;-59
2024/02/29 02:53:34;;;;;;;3.27;1.37;;;;;;;;;;4977634;28;87077;-58
2024/02/29 02:56:00;;;;;;;2.30;1.27;;;;;;;;;;4978821;28;87953;-59
2024/02/29 02:58:25;;;;;;;3.27;1.40;;;;;;;;;;4981519;28;86996;-58
2024/02/29 03:00:50;;;;;;;1.77;1.07;;;;;;;;;;4975307;28;86845;-58
2024/02/29 03:03:15;;;;;;;4.93;1.40;;;;;;;;;;4985605;28;87176;-57
2024/02/29 03:05:41;;;;;;;3.57;0.87;;;;;;;;;;4982482;28;86867;-58
2024/02/29 03:08:07;;;;;;;2.70;1.20;;;;;;;;;;4977845;28;87323;-58
2024/02/29 03:10:33;;;;;;;1.60;1.10;;;;;;;;;;4979625;28;88323;-58
2024/02/29 03:12:58;;;;;;;2.27;1.17;;;;;;;;;;4984843;28;87037;-58
2024/02/29 03:15:23;;;;;;;3.40;1.17;;;;;;;;;;4981716;28;87356;-59
2024/02/29 03:17:48;;;;;;;2.20;1.53;;;;;;;;;;4978646;28;87036;-58
2024/02/29 03:20:14;;;;;;;1.70;1.20;;;;;;;;;;4984724;28;87452;-59
2024/02/29 03:22:40;;;;;;;2.22;1.23;;;;;;;;;;4981067;28;87420;-59
2024/02/29 03:25:05;;;;;;;3.63;1.20;;;;;;;;;;4982936;28;87537;-58
2024/02/29 03:27:30;;;;;;;1.57;1.00;;;;;;;;;;4979837;28;87294;-57
2024/02/29 03:29:56;;;;;;;3.70;1.43;;;;;;;;;;4983285;28;88331;-59
2024/02/29 03:32:21;;;;;;;2.87;1.30;;;;;;;;;;4983443;28;86843;-58
2024/02/29 03:34:46;;;;;;;2.00;1.20;;;;;;;;;;4983659;28;88680;-58
2024/02/29 03:37:13;;;;;;;1.77;0.97;;;;;;;;;;4983432;28;87226;-58
2024/02/29 03:39:38;;;;;;;1.25;0.82;;;;;;;;;;4980163;28;87635;-58
2024/02/29 03:42:04;;;;;;;1.60;1.00;;;;;;;;;;4984780;28;86802;-58
2024/02/29 03:44:29;;;;;;;2.25;0.93;;;;;;;;;;4991070;28;87253;-57
2024/02/29 03:46:54;;;;;;;2.13;1.17;;;;;;;;;;4979557;28;87500;-58
2024/02/29 03:49:19;;;;;;;1.90;0.90;;;;;;;;;;4982898;28;89158;-57
2024/02/29 03:51:45;;;;;;;2.53;0.90;;;;;;;;;;4981858;28;86358;-58
2024/02/29 03:54:10;;;;;;;1.40;0.97;;;;;;;;;;4985986;28;87094;-58
2024/02/29 03:56:35;;;;;;;1.97;1.10;;;;;;;;;;4983733;28;87174;-58
2024/02/29 03:59:00;;;;;;;2.23;1.17;;;;;;;;;;4978933;28;88307;-58
2024/02/29 04:01:25;;;;;;;2.30;1.10;;;;;;;;;;4982607;28;87710;-58
2024/02/29 04:03:51;;;;;;;1.63;1.10;;;;;;;;;;4985838;28;87351;-59
2024/02/29 04:06:16;;;;;;;2.20;1.07;;;;;;;;;;4965378;28;87090;-58
2024/02/29 04:08:41;;;;;;;4.27;0.90;;;;;;;;;;4983626;28;87462;-58
2024/02/29 04:11:07;;;;;;;3.13;1.40;;;;;;;;;;4983373;28;87249;-57
2024/02/29 04:13:32;;;;;;;3.57;1.07;;;;;;;;;;4982962;28;87214;-59
2024/02/29 04:15:57;;;;;;;2.87;1.00;;;;;;;;;;4982115;28;87108;-59
2024/02/29 04:18:22;;;;;;;2.33;1.07;;;;;;;;;;4989041;28;87380;-58
2024/02/29 04:20:48;;;;;;;1.13;0.90;;;;;;;;;;4979176;28;87514;-58
2024/02/29 04:23:13;;;;;;;1.90;1.20;;;;;;;;;;4980195;28;87886;-58
2024/02/29 04:25:38;;;;;;;2.40;1.00;;;;;;;;;;4989382;28;88396;-58
2024/02/29 04:28:03;;;;;;;1.80;1.00;;;;;;;;;;4983368;28;87057;-58
2024/02/29 04:30:29;;;;;;;1.60;1.00;;;;;;;;;;4982172;28;87116;-59
2024/02/29 04:32:54;;;;;;;1.43;0.87;;;;;;;;;;4977461;28;87368;-58
2024/02/29 04:35:20;;;;;;;1.27;1.03;;;;;;;;;;4983491;28;89002;-57
2024/02/29 04:37:45;;;;;;;1.92;1.17;;;;;;;;;;4983580;28;88010;-58
2024/02/29 04:40:11;;;;;;;1.97;1.10;;;;;;;;;;4991257;28;87236;-58
2024/02/29 04:42:37;;;;;;;1.73;0.93;;;;;;;;;;4982625;28;87117;-58
2024/02/29 04:45:02;;;;;;;1.75;1.08;;;;;;;;;;4985563;28;87335;-58
2024/02/29 04:47:28;;;;;;;1.33;1.00;;;;;;;;;;4978659;28;87952;-58
2024/02/29 04:49:53;;;;;;;3.37;1.10;;;;;;;;;;4981157;28;87149;-59
2024/02/29 04:52:18;;;;;;;2.17;1.00;;;;;;;;;;4983330;28;87600;-58
2024/02/29 04:54:43;;;;;;;1.73;1.00;;;;;;;;;;4983807;28;87727;-59
2024/02/29 04:57:09;;;;;;;0.87;0.60;;;;;;;;;;4978599;28;87044;-58
2024/02/29 04:59:34;;;;;;;1.40;0.90;;;;;;;;;;4982195;28;87329;-59
2024/02/29 05:01:59;;;;;;;2.03;0.80;;;;;;;;;;4979758;28;87364;-59
2024/02/29 05:04:25;;;;;;;2.10;0.87;;;;;;;;;;4983352;28;86299;-58
2024/02/29 05:06:50;;;;;;;1.10;1.00;;;;;;;;;;4985035;28;87643;-58
2024/02/29 05:09:16;;;;;;;2.27;1.20;;;;;;;;;;4982022;28;88643;-58
2024/02/29 05:11:41;;;;;;;1.27;0.80;;;;;;;;;;4982478;28;88059;-58
2024/02/29 05:14:07;;;;;;;1.60;0.90;;;;;;;;;;4980964;28;86921;-57
2024/02/29 05:16:32;;;;;;;2.30;1.10;;;;;;;;;;4981384;28;86966;-58
2024/02/29 05:18:57;;;;;;;2.07;1.07;;;;;;;;;;4983592;28;87112;-58
2024/02/29 05:21:22;;;;;;;1.70;0.83;;;;;;;;;;4984769;28;88057;-57
2024/02/29 05:23:48;;;;;;;1.03;0.93;;;;;;;;;;4983435;28;87150;-58
2024/02/29 05:26:13;;;;;;;2.83;1.00;;;;;;;;;;4980762;28;86931;-58
2024/02/29 05:28:38;;;;;;;1.00;0.83;;;;;;;;;;4981826;28;86493;-57
2024/02/29 05:31:03;;;;;;;2.30;0.95;;;;;;;;;;4987219;28;86928;-58
2024/02/29 05:33:29;;;;;;;1.73;1.10;;;;;;;;;;4983877;28;88182;-57
2024/02/29 05:35:54;;;;;;;2.40;1.20;;;;;;;;;;4989747;28;88332;-58
2024/02/29 05:38:19;;;;;;;1.10;0.97;;;;;;;;;;4981648;28;87332;-57
2024/02/29 05:40:45;;;;;;;1.40;0.90;;;;;;;;;;4984457;28;87762;-58
2024/02/29 05:43:10;;;;;;;1.60;1.10;;;;;;;;;;4982203;28;87345;-56
2024/02/29 05:45:35;;;;;;;1.80;0.80;;;;;;;;;;4989497;28;87385;-61
2024/02/29 05:48:00;;;;;;;2.67;1.10;;;;;;;;;;4977965;28;87538;-62
2024/02/29 05:50:26;;;;;;;1.60;0.80;;;;;;;;;;4980414;28;87742;-61
2024/02/29 05:52:52;;;;;;;1.33;1.05;;;;;;;;;;4980743;28;86936;-60
2024/02/29 05:55:17;;;;;;;1.88;1.00;;;;;;;;;;4987060;28;87094;-61
2024/02/29 05:57:42;;;;;;;1.33;0.80;;;;;;;;;;4979246;28;88888;-61
2024/02/29 06:00:08;;;;;;;2.77;1.33;;;;;;;;;;4982158;28;88813;-59
2024/02/29 06:02:33;;;;;;;4.72;1.27;;;;;;;;;;4980813;28;87399;-59
2024/02/29 06:04:58;;;;;;;4.13;1.23;;;;;;;;;;4984616;28;87240;-57
2024/02/29 06:07:25;;;;;;;2.27;1.17;;;;;;;;;;4979587;28;87197;-56
2024/02/29 06:09:50;;;;;;;2.33;1.17;;;;;;;;;;4982047;28;87412;-56
2024/02/29 06:12:15;;;;;;;3.37;1.10;;;;;;;;;;4973209;28;88614;-56
2024/02/29 06:14:43;;;;;;;2.90;1.00;;;;;;;;;;4983389;28;87820;-56
2024/02/29 06:17:09;;;;;;;3.50;1.20;;;;;;;;;;4979610;28;86137;-56
2024/02/29 06:19:39;;;;;;;2.40;1.20;;;;;;;;;;4981337;28;87336;-56
2024/02/29 06:22:07;;;;;;;4.93;1.43;;;;;;;;;;4979782;28;87335;-53
2024/02/29 06:24:33;;;;;;;3.23;1.10;;;;;;;;;;4981860;28;87912;-56
2024/02/29 06:26:58;;;;;;;3.33;1.30;;;;;;;;;;4987030;28;87678;-55
2024/02/29 06:29:23;;;;;;;5.18;1.23;;;;;;;;;;4980249;28;87366;-56
2024/02/29 06:31:49;;;;;;;2.63;1.10;;;;;;;;;;4985413;28;86804;-55
2024/02/29 06:34:14;;;;;;;4.40;1.27;;;;;;;;;;4979109;28;87134;-56
2024/02/29 06:36:40;;;;;;;2.90;1.40;;;;;;;;;;4975417;28;87527;-56
2024/02/29 06:39:07;;;;;;;4.25;1.23;;;;;;;;;;4978596;28;86962;-56
2024/02/29 06:41:33;;;;;;;2.65;1.35;;;;;;;;;;4975145;28;86450;-56
2024/02/29 06:43:58;;;;;;;3.23;1.20;;;;;;;;;;4977088;28;87614;-55
2024/02/29 06:46:23;;;;;;;2.77;1.03;;;;;;;;;;4982607;28;87115;-55
2024/02/29 06:48:49;;;;;;;4.03;1.40;;;;;;;;;;4975128;28;88689;-56
2024/02/29 06:51:14;;;;;;;4.33;1.80;;;;;;;;;;4983738;28;87430;-56
2024/02/29 06:53:39;;;;;;;10.03;2.47;;;;;;;;;;4979709;28;86966;-55
2024/02/29 06:56:04;;;;;;;8.53;2.27;;;;;;;;;;4979180;28;87291;-56
2024/02/29 06:58:32;;;;;;;8.63;2.23;;;;;;;;;;4977938;28;87535;-57
2024/02/29 07:00:57;;;;;;;4.43;1.87;;;;;;;;;;4977527;28;87848;-56
2024/02/29 07:03:23;;;;;;;7.73;1.77;;;;;;;;;;4978800;28;87194;-57
2024/02/29 07:05:48;;;;;;;3.83;2.67;;;;;;;;;;4979557;28;86263;-57
2024/02/29 07:08:13;;;;;;;9.33;2.30;;;;;;;;;;4983553;28;87671;-58
2024/02/29 07:10:40;;;;;;;3.93;2.20;;;;;;;;;;4983504;28;87525;-59
2024/02/29 07:13:05;;;;;;;5.47;2.60;;;;;;;;;;4978879;28;89153;-59
2024/02/29 07:15:31;;;;;;;5.18;2.17;;;;;;;;;;4984339;28;87431;-59
2024/02/29 07:17:56;;;;;;;3.97;2.00;;;;;;;;;;4984768;28;87584;-52
2024/02/29 07:20:21;;;;;;;4.43;2.00;;;;;;;;;;4984322;28;87173;-59
2024/02/29 07:22:47;;;;;;;4.17;2.53;;;;;;;;;;4990308;28;87475;-58
2024/02/29 07:25:12;;;;;;;5.82;1.95;;;;;;;;;;4984816;28;87720;-58
2024/02/29 07:27:38;;;;;;;3.22;2.10;;;;;;;;;;4983090;28;86971;-60
2024/02/29 07:30:04;;;;;;;2.27;1.50;;;;;;;;;;4984266;28;86315;-58
2024/02/29 07:32:30;;;;;;;3.92;2.08;;;;;;;;;;4991487;28;88784;-56
2024/02/29 07:34:55;;;;;;;4.70;2.00;;;;;;;;;;4981779;28;87271;-58
2024/02/29 07:37:20;;;;;;;2.30;1.40;;;;;;;;;;4990694;28;87920;-58
2024/02/29 07:39:45;;;;;;;3.42;2.00;;;;;;;;;;4981158;28;87143;-58
2024/02/29 07:42:10;;;;;;;2.70;1.60;;;;;;;;;;5002144;28;87494;-58
2024/02/29 07:44:36;;;;;;;5.87;1.40;;;;;;;;;;4983728;28;87499;-59
2024/02/29 07:47:01;;;;;;;2.40;1.63;;;;;;;;;;4986867;28;87252;-59
2024/02/29 07:49:26;;;;;;;1.73;1.40;;;;;;;;;;4982020;28;87016;-59
2024/02/29 07:51:54;;;;;;;4.50;1.90;;;;;;;;;;4989113;28;87388;-59
2024/02/29 07:54:19;;;;;;;2.20;1.60;;;;;;;;;;4989114;28;86907;-59
2024/02/29 07:56:44;;;;;;;1.83;1.23;;;;;;;;;;4981154;28;88596;-59
2024/02/29 07:59:10;;;;;;;2.60;1.50;;;;;;;;;;4987270;28;87370;-59
2024/02/29 08:01:35;;;;;;;1.88;1.17;;;;;;;;;;4982832;28;88023;-59
2024/02/29 08:04:00;;;;;;;2.97;1.50;;;;;;;;;;4989525;28;88192;-58
2024/02/29 08:06:25;;;;;;;2.83;1.10;;;;;;;;;;4986488;28;87147;-59
2024/02/29 08:08:51;;;;;;;3.40;1.83;;;;;;;;;;4984210;28;87041;-59
2024/02/29 08:11:16;;;;;;;2.57;1.33;;;;;;;;;;4985508;28;87401;-61
2024/02/29 08:13:41;;;;;;;3.22;1.20;;;;;;;;;;4981381;28;87102;-59
2024/02/29 08:16:06;;;;;;;5.50;1.50;;;;;;;;;;4981758;28;87960;-59
2024/02/29 08:18:33;;;;;;;4.40;1.50;;;;;;;;;;4980473;28;86776;-59
2024/02/29 08:20:58;;;;;;;2.03;1.13;;;;;;;;;;4979873;28;87639;-59
2024/02/29 08:23:23;;;;;;;3.17;1.63;;;;;;;;;;4980729;28;87522;-59
2024/02/29 08:25:49;;;;;;;5.93;1.77;;;;;;;;;;4981191;28;88311;-59
2024/02/29 08:28:15;;;;;;;6.40;1.73;;;;;;;;;;4986310;28;88566;-58
2024/02/29 08:30:40;;;;;;;3.63;1.90;;;;;;;;;;4978894;28;87720;-60
2024/02/29 08:33:06;;;;;;;3.87;2.30;;;;;;;;;;4986797;28;87098;-58
2024/02/29 08:35:31;;;;;;;7.13;2.25;;;;;;;;;;4980773;28;87293;-57
2024/02/29 08:37:56;;;;;;;6.17;2.60;;;;;;;;;;4982484;28;87123;-60
2024/02/29 08:40:21;;;;;;;3.83;2.10;;;;;;;;;;4979895;28;88614;-60
2024/02/29 08:42:47;;;;;;;5.93;2.20;;;;;;;;;;4981295;28;87729;-59
2024/02/29 08:45:12;;;;;;;3.03;2.00;;;;;;;;;;4981628;28;87250;-59
2024/02/29 08:47:37;;;;;;;4.10;2.50;;;;;;;;;;4984932;28;87509;-58
2024/02/29 08:50:03;;;;;;;4.38;2.40;;;;;;;;;;4977660;28;89888;-58
2024/02/29 08:52:30;;;;;;;3.80;2.40;;;;;;;;;;4987022;28;87330;-58
2024/02/29 08:54:56;;;;;;;3.35;2.10;;;;;;;;;;4982492;28;87064;-57
2024/02/29 08:57:22;;;;;;;3.60;2.13;;;;;;;;;;4980120;28;87233;-58
2024/02/29 08:59:47;;;;;;;5.10;2.13;;;;;;;;;;4983572;28;88432;-54
2024/02/29 09:02:12;;;;;;;6.03;1.87;;;;;;;;;;4980808;28;88047;-55
2024/02/29 09:04:38;;;;;;;6.20;2.30;;;;;;;;;;4980111;28;87048;-57
2024/02/29 09:07:03;;;;;;;12.10;5.37;;;;;;;;;;4983605;28;87591;-47
2024/02/29 09:09:29;;;;;;;12.37;5.60;;;;;;;;;;4982967;28;87454;-50
2024/02/29 09:11:54;;;;;;;13.00;5.67;;;;;;;;;;4978523;28;88367;-46
2024/02/29 09:14:20;;;;;;;14.23;6.40;;;;;;;;;;4978661;28;88119;-49
2024/02/29 09:16:45;;;;;;;12.63;5.73;;;;;;;;;;4983006;28;87627;-51
2024/02/29 09:19:10;;;;;;;12.97;6.87;;;;;;;;;;4985890;28;87126;-49
2024/02/29 09:21:35;;;;;;;15.33;6.77;;;;;;;;;;4984053;28;88384;-48
2024/02/29 09:24:01;;;;;;;15.57;6.40;;;;;;;;;;4979332;28;87811;-51
2024/02/29 09:26:26;;;;;;;11.13;5.32;;;;;;;;;;4979371;28;87229;-58
2024/02/29 09:28:51;;;;;;;12.27;4.60;;;;;;;;;;4984536;28;86935;-57
2024/02/29 09:31:16;;;;;;;10.50;4.30;;;;;;;;;;4981610;28;87497;-59
2024/02/29 09:33:42;;;;;;;9.27;3.70;;;;;;;;;;4979508;28;87553;-59
2024/02/29 09:36:08;;;;;;;6.97;3.37;;;;;;;;;;4983343;28;89121;-60
2024/02/29 09:38:33;;;;;;;8.05;3.78;;;;;;;;;;4978575;28;87912;-60
2024/02/29 09:40:58;;;;;;;5.03;3.17;;;;;;;;;;4975338;28;88225;-59
2024/02/29 09:43:23;;;;;;;6.93;2.83;;;;;;;;;;4986318;28;87087;-60
2024/02/29 09:45:50;;;;;;;6.43;3.17;;;;;;;;;;4978482;28;87317;-60
2024/02/29 09:48:15;;;;;;;7.80;3.03;;;;;;;;;;4980934;28;88828;-60
2024/02/29 09:50:41;;;;;;;5.60;2.83;;;;;;;;;;4979515;28;87349;-59
2024/02/29 09:53:08;;;;;;;7.90;2.80;;;;;;;;;;4982859;28;87331;-60
2024/02/29 09:55:34;;;;;;;5.25;2.53;;;;;;;;;;4981845;28;88009;-60
2024/02/29 09:58:00;;;;;;;11.27;2.90;;;;;;;;;;4977137;28;86984;-53
2024/02/29 10:00:25;;;;;;;8.70;2.88;;;;;;;;;;4982457;28;87567;-54
2024/02/29 10:02:51;;;;;;;8.30;3.33;;;;;;;;;;4977362;28;88271;-53
2024/02/29 10:05:16;;;;;;;4.83;2.70;;;;;;;;;;4979700;28;88273;-56
2024/02/29 10:07:43;;;;;;;8.10;3.10;;;;;;;;;;4980901;28;87557;-56
2024/02/29 10:10:11;;;;;;;12.27;3.20;;;;;;;;;;4982772;28;87883;-56
2024/02/29 10:12:36;;;;;;;6.13;3.07;;;;;;;;;;4982018;28;88607;-56
2024/02/29 10:15:04;;;;;;;5.93;2.60;;;;;;;;;;4987235;28;87601;-55
2024/02/29 10:17:31;;;;;;;5.27;2.60;;;;;;;;;;4978475;28;86953;-56
2024/02/29 10:19:56;;;;;;;6.50;3.07;;;;;;;;;;4979539;28;86275;-57
2024/02/29 10:22:22;;;;;;;5.23;3.30;;;;;;;;;;4981846;28;87636;-56
2024/02/29 10:24:50;;;;;;;5.17;2.70;;;;;;;;;;4980456;28;87373;-56
2024/02/29 10:27:16;;;;;;;5.45;2.63;;;;;;;;;;4978394;28;88748;-56
2024/02/29 10:29:42;;;;;;;5.37;2.50;;;;;;;;;;4986123;28;86994;-57
2024/02/29 10:32:07;;;;;;;7.35;3.63;;;;;;;;;;4979692;28;87285;-56
2024/02/29 10:34:34;;;;;;;9.80;3.13;;;;;;;;;;4983214;28;88512;-54
2024/02/29 10:36:59;;;;;;;6.88;2.95;;;;;;;;;;4976375;28;87452;-56
2024/02/29 10:39:26;;;;;;;9.73;3.40;;;;;;;;;;4981511;28;87343;-55
2024/02/29 10:41:55;;;;;;;6.70;2.90;;;;;;;;;;4978415;28;87869;-56
2024/02/29 10:44:24;;;;;;;6.07;2.97;;;;;;;;;;4983224;28;86273;-53
2024/02/29 10:46:50;;;;;;;6.80;2.67;;;;;;;;;;4977726;28;87334;-55
2024/02/29 10:49:34;;;;;;;6.10;2.97;;;;;;;;;;4981361;28;87239;-55
2024/02/29 10:52:07;;;;;;;4.88;2.47;;;;;;;;;;4977174;28;87869;-55
2024/02/29 10:54:37;;;;;;;4.68;2.58;;;;;;;;;;4983056;28;87689;-56
2024/02/29 10:57:04;;;;;;;7.03;3.22;;;;;;;;;;4980208;28;87159;-56
2024/02/29 10:59:30;;;;;;;5.28;2.80;;;;;;;;;;4976782;28;88245;-56
2024/02/29 11:01:58;;;;;;;6.15;2.35;;;;;;;;;;4988448;28;87497;-54
2024/02/29 11:04:25;;;;;;;5.85;3.10;;;;;;;;;;4984511;28;87483;-56
2024/02/29 11:06:52;;;;;;;7.45;2.90;;;;;;;;;;4986121;28;87867;-54
2024/02/29 11:09:21;;;;;;;5.10;2.73;;;;;;;;;;4981498;28;86206;-57
2024/02/29 11:11:47;;;;;;;4.32;2.40;;;;;;;;;;4977631;28;88608;-56
2024/02/29 11:14:13;;;;;;;5.25;2.70;;;;;;;;;;4980313;28;87069;-56
2024/02/29 11:16:40;;;;;;;4.95;2.85;;;;;;;;;;4978816;28;88368;-58
2024/02/29 11:19:12;;;;;;;4.80;2.58;;;;;;;;;;4986784;28;88146;-58
2024/02/29 11:21:37;;;;;;;4.90;2.40;;;;;;;;;;4980625;28;87751;-57
2024/02/29 11:24:06;;;;;;;5.50;2.70;;;;;;;;;;4980235;28;87488;-57
2024/02/29 11:26:32;;;;;;;4.45;2.42;;;;;;;;;;4980618;28;88113;-57
2024/02/29 11:28:59;;;;;;;6.97;2.50;;;;;;;;;;4979829;28;86976;-56
2024/02/29 11:31:25;;;;;;;5.75;2.53;;;;;;;;;;4978846;28;86963;-54
2024/02/29 11:33:50;;;;;;;5.57;2.67;;;;;;;;;;4986348;28;88031;-56
2024/02/29 11:36:16;;;;;;;4.93;2.30;;;;;;;;;;4981434;28;87231;-56
2024/02/29 11:38:41;;;;;;;4.50;2.27;;;;;;;;;;4979546;28;88531;-57
2024/02/29 11:41:16;;;;;;;5.87;2.70;;;;;;;;;;4978666;28;88617;-57
2024/02/29 11:43:43;;;;;;;5.18;2.30;;;;;;;;;;4986211;28;87006;-56
2024/02/29 11:46:09;;;;;;;7.97;2.88;;;;;;;;;;4979622;28;87394;-56
2024/02/29 11:48:34;;;;;;;5.22;2.17;;;;;;;;;;4981984;28;87870;-55
2024/02/29 11:51:00;;;;;;;5.70;2.80;;;;;;;;;;4980847;28;87875;-56
2024/02/29 11:53:26;;;;;;;4.43;2.50;;;;;;;;;;4993462;28;87580;-56
2024/02/29 11:55:52;;;;;;;3.28;2.20;;;;;;;;;;4979056;28;88413;-56
2024/02/29 11:58:17;;;;;;;6.00;2.20;;;;;;;;;;4977173;28;89354;-57
2024/02/29 12:00:43;;;;;;;4.67;2.17;;;;;;;;;;4976344;28;88650;-55
2024/02/29 12:03:08;;;;;;;3.27;2.23;;;;;;;;;;4980926;28;87445;-56
2024/02/29 12:05:35;;;;;;;5.53;1.75;;;;;;;;;;4982604;28;88443;-56
2024/02/29 12:08:01;;;;;;;6.28;2.42;;;;;;;;;;4982257;28;87880;-57
2024/02/29 12:10:26;;;;;;;4.73;2.53;;;;;;;;;;4980448;28;86999;-55
2024/02/29 12:12:51;;;;;;;3.43;2.40;;;;;;;;;;4983821;28;88668;-56
2024/02/29 12:15:17;;;;;;;4.40;2.03;;;;;;;;;;4982347;28;87642;-59
2024/02/29 12:17:43;;;;;;;8.10;2.20;;;;;;;;;;4979867;28;86868;-57
2024/02/29 12:20:10;;;;;;;2.78;1.80;;;;;;;;;;4984882;28;87714;-57
2024/02/29 12:22:35;;;;;;;4.55;2.15;;;;;;;;;;4983322;28;87202;-57
2024/02/29 12:25:11;;;;;;;4.47;2.50;;;;;;;;;;4979457;28;87054;-56
2024/02/29 12:27:36;;;;;;;2.57;1.93;;;;;;;;;;4981742;28;88693;-56
2024/02/29 12:30:03;;;;;;;3.87;2.40;;;;;;;;;;4978512;28;88026;-57
2024/02/29 12:32:29;;;;;;;3.28;1.98;;;;;;;;;;4982056;28;87568;-56
2024/02/29 12:34:56;;;;;;;3.90;2.07;;;;;;;;;;4978926;28;87615;-57
2024/02/29 12:37:22;;;;;;;4.28;2.10;;;;;;;;;;4977664;28;87000;-57
2024/02/29 12:39:56;;;;;;;5.53;2.10;;;;;;;;;;4976720;28;87051;-57
2024/02/29 12:42:22;;;;;;;5.47;2.22;;;;;;;;;;4982680;28;87423;-58
2024/02/29 12:44:50;;;;;;;2.97;2.00;;;;;;;;;;4985803;28;87550;-57
2024/02/29 12:47:15;;;;;;;4.27;2.10;;;;;;;;;;4976493;28;89019;-57
2024/02/29 12:49:41;;;;;;;4.87;2.40;;;;;;;;;;4980797;28;87347;-54
2024/02/29 12:52:06;;;;;;;7.53;2.40;;;;;;;;;;4981587;28;88572;-56
2024/02/29 12:54:31;;;;;;;2.80;1.87;;;;;;;;;;4978950;28;88020;-57
2024/02/29 12:56:56;;;;;;;4.13;1.63;;;;;;;;;;4978914;28;87264;-54
2024/02/29 12:59:22;;;;;;;3.83;1.93;;;;;;;;;;4980916;28;90255;-55
2024/02/29 13:01:47;;;;;;;6.43;2.33;;;;;;;;;;4983611;28;86913;-57
2024/02/29 13:04:12;;;;;;;5.50;2.00;;;;;;;;;;4978202;28;88235;-56
2024/02/29 13:06:38;;;;;;;4.67;2.17;;;;;;;;;;4977031;28;87690;-57
2024/02/29 13:09:04;;;;;;;4.63;1.83;;;;;;;;;;4977649;28;88195;-57
2024/02/29 13:11:30;;;;;;;3.10;1.92;;;;;;;;;;4982737;28;86508;-57
2024/02/29 13:13:55;;;;;;;7.97;1.90;;;;;;;;;;4979677;28;91421;-57
2024/02/29 13:16:20;;;;;;;3.73;1.73;;;;;;;;;;4979856;28;87620;-60
2024/02/29 13:18:46;;;;;;;2.73;1.73;;;;;;;;;;4978364;28;88838;-56
2024/02/29 13:21:11;;;;;;;7.93;2.15;;;;;;;;;;4981847;28;87194;-52
2024/02/29 13:23:37;;;;;;;3.73;2.00;;;;;;;;;;4977090;28;87517;-56
2024/02/29 13:26:02;;;;;;;3.40;1.92;;;;;;;;;;4978023;28;87028;-57
2024/02/29 13:28:27;;;;;;;3.95;2.03;;;;;;;;;;4977855;28;87824;-57
2024/02/29 13:30:53;;;;;;;5.00;1.90;;;;;;;;;;4986338;28;87085;-56
2024/02/29 13:33:18;;;;;;;7.10;2.13;;;;;;;;;;4980176;28;87389;-56
2024/02/29 13:35:43;;;;;;;5.87;2.10;;;;;;;;;;4988901;28;86984;-55
2024/02/29 13:38:09;;;;;;;4.50;1.90;;;;;;;;;;4979137;28;88140;-51
2024/02/29 13:40:34;;;;;;;5.77;3.30;;;;;;;;;;4981404;28;87268;-56
2024/02/29 13:42:59;;;;;;;4.80;2.93;;;;;;;;;;4977176;28;87860;-56
2024/02/29 13:45:30;;;;;;;4.87;3.30;;;;;;;;;;4976637;28;87748;-57
2024/02/29 13:47:56;;;;;;;4.10;2.53;;;;;;;;;;4979006;28;87137;-56
2024/02/29 13:50:21;;;;;;;7.35;3.15;;;;;;;;;;4986508;28;88386;-56
2024/02/29 13:52:47;;;;;;;5.03;2.83;;;;;;;;;;4980847;28;90340;-55
2024/02/29 13:55:12;;;;;;;6.50;2.53;;;;;;;;;;4982598;28;87490;-58
2024/02/29 13:57:38;;;;;;;5.73;2.67;;;;;;;;;;4978515;28;88087;-58
2024/02/29 14:00:06;;;;;;;5.67;2.53;;;;;;;;;;4977999;28;86641;-56
2024/02/29 14:02:31;;;;;;;4.10;2.10;;;;;;;;;;4976469;28;88332;-56
2024/02/29 14:04:56;;;;;;;4.87;2.10;;;;;;;;;;4980429;28;89529;-56
2024/02/29 14:07:21;;;;;;;4.80;2.10;;;;;;;;;;4984234;28;89333;-55
2024/02/29 14:09:47;;;;;;;4.97;2.20;;;;;;;;;;4978112;28;89269;-57
2024/02/29 14:12:12;;;;;;;2.57;1.70;;;;;;;;;;4980575;28;87635;-57
2024/02/29 14:14:37;;;;;;;3.35;1.90;;;;;;;;;;4979739;28;87224;-54
2024/02/29 14:17:03;;;;;;;2.80;1.67;;;;;;;;;;4974721;28;87671;-54
2024/02/29 14:19:28;;;;;;;4.17;2.20;;;;;;;;;;4982286;28;88555;-57
2024/02/29 14:21:53;;;;;;;3.17;1.53;;;;;;;;;;4976520;28;88451;-56
2024/02/29 14:24:19;;;;;;;3.00;1.77;;;;;;;;;;4981184;28;86275;-57
2024/02/29 14:26:44;;;;;;;3.08;2.00;;;;;;;;;;4979055;28;87013;-56
2024/02/29 14:29:09;;;;;;;4.38;1.80;;;;;;;;;;4978728;28;88263;-56
2024/02/29 14:31:35;;;;;;;2.30;1.60;;;;;;;;;;4978676;28;90166;-57
2024/02/29 14:34:00;;;;;;;3.90;1.80;;;;;;;;;;4977427;28;86950;-58